This is the latest recevied weather packets stored in our database for station/object W5COG. If no packets are shown the sender has not sent any weather packets the latest 1 day(s).
| Time | Temp. | Humidity | Pressure | Rain* | Wind** | Luminosity | Snow |
|---|---|---|---|---|---|---|---|
| 1778001928 | 12.78° C | 79% | 1006.6 hPa | 0 mm | 2.24 m/s, 47° | 97 W/m² | - |
| 1778001628 | 12.22° C | 79% | 1006.6 hPa | 0 mm | 1.79 m/s, 37° | 87 W/m² | - |
| 1778001328 | 12.22° C | 79% | 1006.5 hPa | 0 mm | 2.24 m/s, 38° | 77 W/m² | - |
| 1778001028 | 12.22° C | 79% | 1006.4 hPa | 0 mm | 2.68 m/s, 34° | 66 W/m² | - |
| 1778000727 | 12.78° C | 80% | 1006.3 hPa | 0 mm | 1.79 m/s, 48° | 63 W/m² | - |
| 1778000427 | 12.78° C | 81% | 1006.4 hPa | 0 mm | 1.79 m/s, 39° | 51 W/m² | - |
| 1777999528 | 12.22° C | 81% | 1005.9 hPa | 0 mm | 3.13 m/s, 52° | 58 W/m² | - |
| 1777999228 | 12.78° C | 81% | 1005.7 hPa | 0 mm | 2.68 m/s, 44° | 70 W/m² | - |
| 1777998928 | 12.78° C | 81% | 1005.7 hPa | 0 mm | 2.68 m/s, 60° | 70 W/m² | - |
| 1777998628 | 12.78° C | 83% | 1005.6 hPa | 0 mm | 2.68 m/s, 46° | 75 W/m² | - |
| 1777998328 | 12.78° C | 83% | 1005.5 hPa | 0 mm | 2.68 m/s, 45° | 69 W/m² | - |
| 1777998028 | 12.78° C | 84% | 1005.5 hPa | 0 mm | 2.68 m/s, 66° | 68 W/m² | - |
| 1777997728 | 12.78° C | 84% | 1005.3 hPa | 0 mm | 2.24 m/s, 42° | 65 W/m² | - |
| 1777997428 | 12.78° C | 83% | 1005.3 hPa | 0 mm | 2.24 m/s, 39° | 56 W/m² | - |
| 1777996828 | 12.78° C | 82% | 1005.2 hPa | 0 mm | 2.68 m/s, 45° | 51 W/m² | - |
| 1777996539 | 13.33° C | 83% | 1005.4 hPa | 0 mm | 2.24 m/s, 53° | 40 W/m² | - |
| 1777996228 | 13.33° C | 83% | 1005.3 hPa | 0 mm | 2.24 m/s, 44° | 46 W/m² | - |
| 1777995928 | 13.33° C | 81% | 1005.2 hPa | 0 mm | 3.13 m/s, 31° | 45 W/m² | - |
| 1777995628 | 13.89° C | 82% | 1004.9 hPa | 0 mm | 1.79 m/s, 37° | 45 W/m² | - |
| 1777995328 | 13.89° C | 81% | 1004.6 hPa | 0 mm | 2.24 m/s, 49° | 47 W/m² | - |
| 1777995028 | 14.44° C | 80% | 1004.6 hPa | 0 mm | 2.24 m/s, 44° | 43 W/m² | - |
| 1777994728 | 15° C | 81% | 1004.6 hPa | 0 mm | 2.24 m/s, 36° | 39 W/m² | - |
| 1777994428 | 15° C | 80% | 1004.5 hPa | 0 mm | 2.24 m/s, 46° | 40 W/m² | - |
| 1777994128 | 15.56° C | 81% | 1004.5 hPa | 0 mm | 2.24 m/s, 35° | 39 W/m² | - |
| 1777993228 | 16.67° C | 81% | 1004 hPa | 0 mm | 1.79 m/s, 31° | 29 W/m² | - |
* Rain latest hour (hover to see other rain measurements)
** Current wind speed in m/s (hover to see current wind gust speed)